This is the latest recevied weather packets stored in our database for station/object W1REE. If no packets are shown the sender has not sent any weather packets the latest 10 day(s).
| Time | Temp. | Humidity | Pressure | Rain* | Wind** | Luminosity | Snow |
|---|---|---|---|---|---|---|---|
| 1777710791 | 5.56° C | 40% | 1024.3 hPa | 0 mm | - | 0 W/m² | - |
| 1777710489 | 5.56° C | 41% | 1024.3 hPa | 0 mm | - | 0 W/m² | - |
| 1777710186 | 5.56° C | 42% | 1024.4 hPa | 0 mm | - | 0 W/m² | - |
| 1777709883 | 5.56° C | 42% | 1024.6 hPa | 0 mm | - | 0 W/m² | - |
| 1777709581 | 5.56° C | 41% | 1024.3 hPa | 0 mm | - | 0 W/m² | - |
| 1777709278 | 5.56° C | 41% | 1024.4 hPa | 0 mm | - | 0 W/m² | - |
| 1777708975 | 5.56° C | 41% | 1024.4 hPa | 0 mm | - | 0 W/m² | - |
| 1777708672 | 5.56° C | 42% | 1024.4 hPa | 0 mm | - | 0 W/m² | - |
| 1777708370 | 5.56° C | 42% | 1024.4 hPa | 0 mm | - | 0 W/m² | - |
| 1777707765 | 5.56° C | 43% | 1024.3 hPa | 0 mm | - | 0 W/m² | - |
| 1777707460 | 5° C | 43% | 1024.4 hPa | 0 mm | - | 0 W/m² | - |
| 1777707157 | 5.56° C | 44% | 1024.3 hPa | 0 mm | - | 0 W/m² | - |
| 1777706855 | 5.56° C | 43% | 1024.6 hPa | 0 mm | - | 0 W/m² | - |
| 1777706552 | 5° C | 45% | 1024.6 hPa | 0 mm | - | 0 W/m² | - |
| 1777706250 | 5° C | 46% | 1024.7 hPa | 0 mm | - | 0 W/m² | - |
| 1777705947 | 3.89° C | 48% | 1024.7 hPa | 0 mm | - | 0 W/m² | - |
| 1777705646 | 3.89° C | 50% | 1024.7 hPa | 0 mm | - | 0 W/m² | - |
| 1777705343 | 3.89° C | 51% | 1024.6 hPa | 0 mm | - | 0 W/m² | - |
| 1777705041 | 4.44° C | 51% | 1024.8 hPa | 0 mm | - | 0 W/m² | - |
| 1777704739 | 4.44° C | 46% | 1024.4 hPa | 0 mm | - | 0 W/m² | - |
| 1777704437 | 3.33° C | 53% | 1024.6 hPa | 0 mm | - | 0 W/m² | - |
| 1777704135 | 3.89° C | 52% | 1024.4 hPa | 0 mm | - | 0 W/m² | - |
| 1777703832 | 3.89° C | 50% | 1024.4 hPa | 0 mm | - | 0 W/m² | - |
| 1777703530 | 3.89° C | 52% | 1024.6 hPa | 0 mm | - | 0 W/m² | - |
| 1777703226 | 4.44° C | 49% | 1024.6 hPa | 0 mm | - | 0 W/m² | - |
* Rain latest hour (hover to see other rain measurements)
** Current wind speed in m/s (hover to see current wind gust speed)